Time;durP1;ratioP1;P1;durP2;ratioP2;P2;SDS_P1;SDS_P2;PMS_P1;PMS_P2;Temp;Humidity;BMP_temperature;BMP_pressure;BME280_temperature;BME280_humidity;BME280_pressure;Samples;Min_cycle;Max_cycle;Signal;HPM_P1;HPM_P2
2021/08/25 00:00:13;;;;;;;7.80;6.38;;;;;;;15.82;67.84;100523.25;815356;39;20814;-77
2021/08/25 00:01:00;;;;;;;7.57;6.35;;;;;;;15.74;68.39;100524.94;814075;54;20046;-76
2021/08/25 00:01:48;;;;;;;7.63;5.90;;;;;;;15.78;68.11;100525.44;813584;47;20046;-78
2021/08/25 00:02:35;;;;;;;7.93;5.85;;;;;;;15.81;68.20;100522.41;813596;47;20038;-78
2021/08/25 00:03:23;;;;;;;9.05;6.25;;;;;;;15.77;68.38;100528.31;813742;54;20061;-76
2021/08/25 00:04:10;;;;;;;8.20;6.30;;;;;;;15.77;68.35;100533.69;813930;54;20673;-77
2021/08/25 00:04:56;;;;;;;7.60;6.35;;;;;;;15.74;68.42;100530.31;813857;47;20038;-78
2021/08/25 00:05:44;;;;;;;6.22;5.10;;;;;;;15.78;68.21;100525.44;814116;47;20034;-76
2021/08/25 00:06:30;;;;;;;8.25;6.03;;;;;;;15.75;68.32;100521.22;813525;47;20062;-77
2021/08/25 00:07:20;;;;;;;8.38;6.30;;;;;;;15.74;68.13;100524.94;813143;47;20034;-78
2021/08/25 00:08:09;;;;;;;9.32;6.63;;;;;;;15.69;68.22;100524.56;813958;54;20149;-77
2021/08/25 00:08:57;;;;;;;9.63;6.25;;;;;;;15.69;68.50;100516.47;813366;47;20089;-78
2021/08/25 00:09:46;;;;;;;13.13;6.57;;;;;;;15.64;68.36;100520.69;814018;47;20050;-76
2021/08/25 00:10:32;;;;;;;9.15;6.82;;;;;;;15.65;68.62;100520.53;813649;47;20042;-79
2021/08/25 00:11:21;;;;;;;7.97;6.35;;;;;;;15.62;68.32;100515.47;814061;39;20549;-77
2021/08/25 00:12:09;;;;;;;7.60;6.28;;;;;;;15.65;68.48;100515.16;813591;47;20043;-78
2021/08/25 00:12:58;;;;;;;7.90;6.28;;;;;;;15.68;68.28;100516.66;813836;54;20048;-78
2021/08/25 00:13:44;;;;;;;7.70;6.00;;;;;;;15.68;68.51;100514.78;814119;54;20236;-77
2021/08/25 00:14:33;;;;;;;6.93;5.40;;;;;;;15.67;68.17;100510.44;813763;54;20070;-77
2021/08/25 00:15:19;;;;;;;6.63;5.70;;;;;;;15.69;68.07;100503.00;813736;47;20046;-76
2021/08/25 00:16:08;;;;;;;8.38;5.50;;;;;;;15.70;68.03;100512.78;813483;54;20042;-77
2021/08/25 00:16:54;;;;;;;7.07;6.10;;;;;;;15.67;68.11;100502.34;813994;54;20042;-78
2021/08/25 00:17:42;;;;;;;7.03;6.05;;;;;;;15.66;68.51;100510.59;813463;47;20041;-77
2021/08/25 00:18:28;;;;;;;8.18;6.03;;;;;;;15.62;68.26;100504.69;813791;46;20157;-77
2021/08/25 00:19:14;;;;;;;8.63;6.80;;;;;;;15.59;68.44;100505.03;813890;47;20062;-76
2021/08/25 00:20:03;;;;;;;7.40;6.57;;;;;;;15.64;68.62;100502.69;813601;39;20448;-79
2021/08/25 00:20:49;;;;;;;9.95;5.82;;;;;;;15.63;68.67;100501.00;813258;54;20038;-77
2021/08/25 00:21:38;;;;;;;7.00;5.68;;;;;;;15.67;68.17;100496.97;814746;39;20424;-79
2021/08/25 00:22:27;;;;;;;9.43;6.72;;;;;;;15.63;68.43;100501.00;813806;47;20069;-77
2021/08/25 00:23:15;;;;;;;7.88;6.13;;;;;;;15.67;68.42;100496.09;813436;54;20716;-76
2021/08/25 00:24:02;;;;;;;7.88;6.30;;;;;;;15.60;68.42;100501.31;815197;39;20481;-76
2021/08/25 00:24:51;;;;;;;8.00;5.93;;;;;;;15.61;68.58;100503.00;813848;54;20684;-77
2021/08/25 00:25:37;;;;;;;7.75;5.95;;;;;;;15.59;68.58;100496.94;813748;47;20042;-77
2021/08/25 00:26:25;;;;;;;8.95;6.18;;;;;;;15.56;68.59;100491.91;813369;54;20034;-77
2021/08/25 00:27:11;;;;;;;7.40;5.85;;;;;;;15.56;68.70;100479.25;814095;47;20068;-78
2021/08/25 00:28:00;;;;;;;6.45;5.45;;;;;;;15.58;68.50;100485.31;813623;47;20799;-77
2021/08/25 00:28:46;;;;;;;8.27;6.03;;;;;;;15.60;68.40;100494.09;813511;47;20118;-76
2021/08/25 00:29:35;;;;;;;6.95;5.40;;;;;;;15.61;68.61;100481.44;813296;47;20066;-77
2021/08/25 00:30:22;;;;;;;6.32;4.80;;;;;;;15.68;68.28;100487.03;813644;54;20034;-77
2021/08/25 00:31:10;;;;;;;7.72;5.47;;;;;;;15.68;68.54;100479.75;813468;47;20069;-76
2021/08/25 00:31:56;;;;;;;6.95;5.47;;;;;;;15.68;68.06;100478.94;813687;54;20088;-78
2021/08/25 00:32:45;;;;;;;6.82;5.50;;;;;;;15.59;68.41;100483.47;813942;47;20026;-75
2021/08/25 00:33:31;;;;;;;10.32;6.07;;;;;;;15.52;68.46;100483.31;814769;39;20825;-77
2021/08/25 00:34:17;;;;;;;7.93;6.82;;;;;;;15.46;68.83;100483.13;813996;54;20069;-78
2021/08/25 00:35:06;;;;;;;7.65;5.97;;;;;;;15.44;68.92;100486.00;813703;47;20035;-77
2021/08/25 00:35:52;;;;;;;7.55;6.07;;;;;;;15.50;69.00;100487.16;813428;54;20064;-76
2021/08/25 00:36:41;;;;;;;8.75;5.80;;;;;;;15.49;68.67;100478.25;813154;54;20557;-77
2021/08/25 00:37:29;;;;;;;7.10;6.10;;;;;;;15.46;68.97;100483.94;813447;47;20064;-79
2021/08/25 00:38:18;;;;;;;9.55;6.82;;;;;;;15.42;69.30;100477.22;813788;47;20612;-77
2021/08/25 00:39:04;;;;;;;9.73;6.22;;;;;;;15.37;69.17;100483.13;813508;54;20064;-78
2021/08/25 00:39:50;;;;;;;8.00;6.38;;;;;;;15.36;69.18;100476.03;813918;54;20068;-77
2021/08/25 00:40:39;;;;;;;7.00;5.95;;;;;;;15.40;69.27;100469.28;812900;54;20799;-77
2021/08/25 00:41:25;;;;;;;11.23;5.97;;;;;;;15.44;69.17;100476.03;813153;47;20118;-78
2021/08/25 00:42:13;;;;;;;7.65;4.85;;;;;;;15.46;69.14;100477.75;814652;39;20386;-78
2021/08/25 00:43:04;;;;;;;5.57;4.85;;;;;;;15.48;68.98;100479.25;813335;54;20039;-77
2021/08/25 00:43:53;;;;;;;6.95;5.18;;;;;;;15.50;68.95;100479.06;813439;47;20042;-78
2021/08/25 00:44:39;;;;;;;5.40;4.30;;;;;;;15.58;68.82;100471.84;813631;54;20039;-77
2021/08/25 00:45:28;;;;;;;6.03;4.53;;;;;;;15.62;68.58;100476.91;813403;54;20049;-77
2021/08/25 00:46:14;;;;;;;5.60;4.22;;;;;;;15.66;68.50;100476.41;813723;39;20655;-78
2021/08/25 00:47:03;;;;;;;6.13;4.57;;;;;;;15.66;68.18;100467.47;813627;54;20046;-77
2021/08/25 00:47:50;;;;;;;6.13;4.68;;;;;;;15.67;68.11;100477.25;813976;54;20881;-77
2021/08/25 00:48:39;;;;;;;5.93;4.40;;;;;;;15.70;68.28;100471.53;813474;46;20043;-78
2021/08/25 00:49:25;;;;;;;5.85;4.60;;;;;;;15.70;68.12;100477.75;814144;54;20086;-78
2021/08/25 00:50:15;;;;;;;6.70;4.95;;;;;;;15.65;68.21;100474.72;814004;54;20046;-78
2021/08/25 00:51:01;;;;;;;5.50;4.32;;;;;;;15.65;68.56;100472.03;813459;54;20626;-77
2021/08/25 00:51:49;;;;;;;5.85;4.53;;;;;;;15.64;68.19;100473.03;813596;39;20294;-77
2021/08/25 00:52:42;;;;;;;6.03;4.85;;;;;;;15.70;68.02;100469.66;814016;39;20855;-78
2021/08/25 00:53:28;;;;;;;7.40;5.15;;;;;;;15.73;68.04;100468.47;813007;47;20079;-77
2021/08/25 00:54:19;;;;;;;6.50;5.18;;;;;;;15.75;68.01;100475.41;812835;54;20034;-78
2021/08/25 00:55:07;;;;;;;5.47;4.18;;;;;;;15.80;67.96;100474.03;814144;54;20046;-77
2021/08/25 00:55:58;;;;;;;6.90;4.20;;;;;;;15.84;67.86;100470.03;813951;54;20042;-77
2021/08/25 00:56:44;;;;;;;5.57;4.28;;;;;;;15.85;67.80;100466.34;814923;31;20585;-78
2021/08/25 00:57:33;;;;;;;5.97;4.50;;;;;;;15.85;67.77;100469.03;813735;47;20071;-78
2021/08/25 00:58:19;;;;;;;5.63;4.65;;;;;;;15.83;67.98;100463.75;813383;47;20064;-77
2021/08/25 00:59:08;;;;;;;6.03;4.72;;;;;;;15.79;68.05;100475.06;813335;47;20069;-78
2021/08/25 00:59:55;;;;;;;8.05;4.75;;;;;;;15.81;67.75;100467.66;813443;54;20042;-77
2021/08/25 01:00:48;;;;;;;6.35;4.47;;;;;;;15.74;67.77;100468.31;813355;39;20627;-77
2021/08/25 01:01:46;;;;;;;5.75;4.85;;;;;;;15.75;67.92;100467.31;813989;54;20039;-78
2021/08/25 01:02:44;;;;;;;6.60;4.65;;;;;;;15.68;68.40;100466.28;813025;39;20457;-76
2021/08/25 01:03:32;;;;;;;6.80;4.43;;;;;;;15.69;68.04;100467.97;813953;54;20034;-78
2021/08/25 01:04:27;;;;;;;6.80;5.22;;;;;;;15.70;68.24;100468.84;813905;54;20048;-77
2021/08/25 01:05:14;;;;;;;5.97;4.35;;;;;;;15.66;67.99;100468.34;813589;46;20149;-77
2021/08/25 01:06:10;;;;;;;6.30;4.20;;;;;;;15.68;68.00;100470.84;813870;47;20118;-79
2021/08/25 01:06:57;;;;;;;5.63;4.50;;;;;;;15.64;68.25;100469.47;813160;47;20046;-78
2021/08/25 01:07:49;;;;;;;5.70;4.07;;;;;;;15.71;68.10;100463.25;813031;47;20044;-77
2021/08/25 01:08:37;;;;;;;6.93;4.50;;;;;;;15.72;67.99;100464.13;813527;54;20046;-78
2021/08/25 01:09:25;;;;;;;5.97;4.35;;;;;;;15.73;68.16;100463.94;813825;54;20035;-77
2021/08/25 01:10:25;;;;;;;7.85;4.72;;;;;;;15.69;68.05;100464.44;813940;54;20071;-77
2021/08/25 01:11:14;;;;;;;6.65;5.00;;;;;;;15.66;67.99;100472.88;815029;39;20293;-78
2021/08/25 01:12:01;;;;;;;6.57;4.78;;;;;;;15.56;68.77;100463.09;813749;47;20038;-78
2021/08/25 01:12:49;;;;;;;6.63;5.20;;;;;;;15.64;68.49;100464.97;813971;54;20046;-77
2021/08/25 01:13:35;;;;;;;6.50;4.75;;;;;;;15.68;68.43;100468.97;814008;47;20064;-78
2021/08/25 01:14:24;;;;;;;5.80;4.60;;;;;;;15.68;68.30;100466.28;814210;54;20041;-78
2021/08/25 01:15:10;;;;;;;6.70;5.13;;;;;;;15.67;68.18;100467.31;814393;47;20064;-78
2021/08/25 01:15:56;;;;;;;5.90;4.30;;;;;;;15.69;68.28;100459.88;813871;54;20046;-78
2021/08/25 01:16:48;;;;;;;6.00;4.57;;;;;;;15.68;68.40;100470.84;814048;47;20042;-78
2021/08/25 01:17:34;;;;;;;5.43;4.20;;;;;;;15.71;68.37;100459.75;813994;47;20042;-78
2021/08/25 01:18:22;;;;;;;6.75;4.75;;;;;;;15.71;68.33;100460.56;813870;54;20077;-79
2021/08/25 01:19:13;;;;;;;7.43;5.03;;;;;;;15.61;68.25;100454.50;813824;54;20110;-78
2021/08/25 01:20:05;;;;;;;7.18;5.55;;;;;;;15.54;68.31;100458.88;813459;46;20048;-77
2021/08/25 01:20:53;;;;;;;6.53;5.13;;;;;;;15.55;68.82;100458.69;813949;54;20094;-77
2021/08/25 01:21:42;;;;;;;9.32;6.05;;;;;;;15.51;68.62;100453.81;814635;54;20046;-79
2021/08/25 01:22:28;;;;;;;8.00;5.07;;;;;;;15.54;68.57;100458.88;814692;54;20066;-78
2021/08/25 01:23:21;;;;;;;6.80;5.18;;;;;;;15.50;68.80;100462.91;814494;47;20042;-77
2021/08/25 01:24:08;;;;;;;6.97;5.40;;;;;;;15.48;68.94;100462.25;813454;46;20197;-77
2021/08/25 01:24:58;;;;;;;8.00;5.88;;;;;;;15.38;69.08;100460.56;813493;54;20042;-77
2021/08/25 01:25:44;;;;;;;8.00;5.88;;;;;;;15.35;69.34;100463.56;813963;54;20183;-77
2021/08/25 01:26:34;;;;;;;7.70;5.78;;;;;;;15.30;69.39;100465.94;813762;47;20064;-77
2021/08/25 01:27:23;;;;;;;7.65;5.88;;;;;;;15.29;69.59;100466.94;813845;50;20059;-78
2021/08/25 01:28:12;;;;;;;7.35;5.53;;;;;;;15.27;69.28;100463.56;814202;54;20114;-77
2021/08/25 01:29:02;;;;;;;9.02;5.70;;;;;;;15.24;69.58;100459.38;814050;54;20069;-77
2021/08/25 01:29:54;;;;;;;7.45;5.85;;;;;;;15.24;69.53;100463.88;814017;47;20050;-79
2021/08/25 01:30:40;;;;;;;6.57;4.78;;;;;;;15.27;69.61;100466.25;813587;54;20068;-79
2021/08/25 01:31:29;;;;;;;8.77;6.00;;;;;;;15.24;69.74;100464.75;814033;54;20042;-77
2021/08/25 01:32:16;;;;;;;6.93;5.53;;;;;;;15.22;69.81;100466.75;814161;54;20089;-76
2021/08/25 01:33:05;;;;;;;7.95;5.45;;;;;;;15.19;69.98;100464.38;813976;47;20071;-78
2021/08/25 01:34:02;;;;;;;7.30;5.75;;;;;;;15.18;70.00;100468.06;813635;47;20064;-78
2021/08/25 01:34:53;;;;;;;7.15;5.90;;;;;;;15.12;69.92;100460.66;813267;54;20086;-76
2021/08/25 01:35:40;;;;;;;7.47;5.82;;;;;;;15.13;70.10;100459.66;813455;47;20150;-78
2021/08/25 01:36:29;;;;;;;6.70;5.70;;;;;;;15.15;69.91;100462.19;813582;47;20670;-78
2021/08/25 01:37:16;;;;;;;7.90;6.05;;;;;;;15.13;70.13;100459.66;813576;54;20754;-77
2021/08/25 01:38:05;;;;;;;8.35;5.53;;;;;;;15.13;69.82;100468.56;813518;54;20035;-77
2021/08/25 01:38:54;;;;;;;6.43;5.28;;;;;;;15.13;69.75;100463.19;813709;47;20038;-77
2021/08/25 01:39:49;;;;;;;7.40;5.15;;;;;;;15.13;69.93;100468.56;813641;54;20043;-78
2021/08/25 01:40:38;;;;;;;8.02;5.47;;;;;;;15.14;70.17;100466.75;813720;46;20072;-78
2021/08/25 01:41:27;;;;;;;7.20;5.47;;;;;;;15.13;70.29;100463.19;813744;54;20038;-78
2021/08/25 01:42:16;;;;;;;6.85;5.55;;;;;;;15.19;69.92;100460.88;814096;39;20936;-78
2021/08/25 01:43:03;;;;;;;6.82;5.03;;;;;;;15.20;69.90;100462.56;814057;54;20068;-78
2021/08/25 01:43:53;;;;;;;6.53;5.15;;;;;;;15.24;69.97;100459.38;813390;47;20041;-78
2021/08/25 01:44:39;;;;;;;7.05;5.60;;;;;;;15.19;69.78;100455.47;813597;47;20146;-77
2021/08/25 01:45:30;;;;;;;6.88;5.28;;;;;;;15.16;70.09;100466.56;813312;54;20034;-77
2021/08/25 01:46:20;;;;;;;6.57;5.35;;;;;;;15.21;70.05;100459.69;813789;54;20129;-79
2021/08/25 01:47:09;;;;;;;10.23;5.95;;;;;;;15.19;70.12;100458.16;813861;46;20073;-77
2021/08/25 01:47:55;;;;;;;6.75;5.18;;;;;;;15.18;70.13;100467.25;813582;46;20056;-78
2021/08/25 01:48:44;;;;;;;6.45;5.15;;;;;;;15.22;69.83;100463.19;813840;54;20038;-79
2021/08/25 01:49:30;;;;;;;6.75;5.03;;;;;;;15.21;69.96;100475.00;813737;47;20073;-77
2021/08/25 01:50:18;;;;;;;9.07;5.75;;;;;;;15.19;70.23;100464.38;813637;54;20062;-78
2021/08/25 01:51:04;;;;;;;6.65;5.22;;;;;;;15.21;69.87;100467.75;813318;47;20629;-77
2021/08/25 01:51:57;;;;;;;6.05;4.53;;;;;;;15.19;70.26;100466.25;813870;54;20042;-78
2021/08/25 01:52:43;;;;;;;6.88;4.78;;;;;;;15.25;69.84;100466.44;813763;54;20039;-78
2021/08/25 01:53:32;;;;;;;6.35;4.90;;;;;;;15.28;69.76;100462.56;813714;54;20076;-78
2021/08/25 01:54:18;;;;;;;6.90;5.07;;;;;;;15.26;69.80;100462.72;813493;47;20050;-77
2021/08/25 01:55:07;;;;;;;6.68;5.30;;;;;;;15.15;70.38;100460.34;813462;54;20034;-77
2021/08/25 01:55:53;;;;;;;9.65;5.70;;;;;;;14.99;70.48;100458.44;813764;47;20061;-78
2021/08/25 01:56:43;;;;;;;7.45;6.15;;;;;;;14.93;70.96;100461.78;813751;54;20035;-79
2021/08/25 01:57:29;;;;;;;9.60;6.30;;;;;;;14.94;70.91;100466.16;813646;47;20081;-78
2021/08/25 01:58:17;;;;;;;8.38;5.88;;;;;;;14.92;70.84;100465.50;813812;54;20198;-79
2021/08/25 01:59:05;;;;;;;8.07;6.13;;;;;;;14.94;70.95;100466.16;813369;47;20098;-78
2021/08/25 01:59:53;;;;;;;6.53;5.53;;;;;;;14.94;71.00;100456.25;813933;54;20050;-78
2021/08/25 02:00:42;;;;;;;6.93;5.22;;;;;;;14.96;70.96;100456.06;813818;47;20062;-78
2021/08/25 02:01:30;;;;;;;7.25;5.25;;;;;;;14.97;70.79;100457.75;813657;54;20102;-76
2021/08/25 02:02:16;;;;;;;6.50;5.20;;;;;;;14.91;70.70;100453.03;814152;54;20073;-79
2021/08/25 02:03:05;;;;;;;8.90;6.93;;;;;;;14.81;71.37;100454.03;813990;47;20042;-78
2021/08/25 02:03:52;;;;;;;8.38;6.60;;;;;;;14.87;71.17;100457.91;813881;39;20812;-78
2021/08/25 02:04:40;;;;;;;7.00;5.50;;;;;;;14.87;71.09;100451.66;813940;54;20106;-77
2021/08/25 02:05:26;;;;;;;6.90;5.55;;;;;;;14.85;70.89;100459.06;813428;47;20069;-78
2021/08/25 02:06:15;;;;;;;7.55;5.43;;;;;;;14.87;70.92;100457.06;813598;54;20928;-77
2021/08/25 02:07:01;;;;;;;10.35;5.93;;;;;;;14.81;71.04;100459.41;813798;54;20042;-78
2021/08/25 02:07:50;;;;;;;7.80;5.68;;;;;;;14.85;71.26;100454.53;813590;54;20061;-78
2021/08/25 02:08:36;;;;;;;6.63;5.63;;;;;;;14.80;71.26;100455.03;813807;47;20109;-78
2021/08/25 02:09:25;;;;;;;9.50;6.15;;;;;;;14.81;71.41;100454.03;813495;47;21850;-79
2021/08/25 02:10:11;;;;;;;9.30;6.45;;;;;;;14.75;71.37;100457.34;813669;54;20034;-76
2021/08/25 02:11:00;;;;;;;7.75;6.07;;;;;;;14.73;71.28;100455.81;813622;54;20042;-78
2021/08/25 02:11:46;;;;;;;6.68;5.60;;;;;;;14.78;71.34;100457.03;813789;47;20046;-79
2021/08/25 02:12:35;;;;;;;9.15;5.15;;;;;;;14.77;71.14;100447.25;813844;47;20034;-77
2021/08/25 02:13:21;;;;;;;7.90;5.85;;;;;;;14.81;71.35;100445.94;813575;47;20745;-77
2021/08/25 02:14:09;;;;;;;7.47;5.38;;;;;;;14.81;71.05;100451.34;813457;54;20048;-77
2021/08/25 02:14:55;;;;;;;7.25;5.80;;;;;;;14.84;71.19;100452.84;813499;54;20060;-76
2021/08/25 02:15:47;;;;;;;6.95;5.47;;;;;;;14.84;71.12;100452.84;813348;54;20034;-78
2021/08/25 02:16:34;;;;;;;6.30;5.18;;;;;;;14.85;71.17;100449.16;813307;47;20165;-77
2021/08/25 02:17:22;;;;;;;7.63;6.00;;;;;;;14.83;71.26;100451.16;813854;54;20042;-77
2021/08/25 02:18:08;;;;;;;7.75;5.93;;;;;;;14.78;71.16;100454.34;813276;54;20039;-77
2021/08/25 02:18:57;;;;;;;7.00;5.95;;;;;;;14.78;71.07;100446.25;813140;54;20042;-78
2021/08/25 02:19:43;;;;;;;11.60;6.00;;;;;;;14.75;71.28;100449.28;814173;54;20106;-77
2021/08/25 02:20:32;;;;;;;7.43;6.07;;;;;;;14.71;71.41;100458.69;813934;47;20079;-77
2021/08/25 02:21:21;;;;;;;8.18;6.35;;;;;;;14.73;71.25;100448.63;813386;47;20038;-77
2021/08/25 02:22:09;;;;;;;7.72;6.10;;;;;;;14.69;71.63;100452.63;813656;47;20035;-78
2021/08/25 02:22:55;;;;;;;8.27;6.60;;;;;;;14.68;71.49;100453.63;815352;39;20272;-79
2021/08/25 02:23:44;;;;;;;6.57;5.60;;;;;;;14.76;71.36;100453.66;813652;47;20068;-78
2021/08/25 02:24:30;;;;;;;7.75;5.45;;;;;;;14.73;71.45;100445.06;813733;47;20035;-77
2021/08/25 02:25:16;;;;;;;8.02;6.22;;;;;;;14.66;71.50;100448.41;814012;39;20540;-78
2021/08/25 02:26:05;;;;;;;7.65;6.50;;;;;;;14.64;71.63;100446.88;813708;54;20142;-78
2021/08/25 02:26:51;;;;;;;9.07;6.80;;;;;;;14.61;71.84;100449.88;813584;54;20095;-77
2021/08/25 02:27:41;;;;;;;7.72;6.45;;;;;;;14.65;71.69;100440.44;813195;47;20042;-79
2021/08/25 02:28:26;;;;;;;7.82;6.03;;;;;;;14.66;71.17;100442.13;813698;47;20039;-79
2021/08/25 02:29:15;;;;;;;7.28;6.05;;;;;;;14.70;71.28;100440.00;813321;54;20593;-78
2021/08/25 02:30:01;;;;;;;7.47;5.97;;;;;;;14.68;71.46;100442.84;813521;54;20196;-77
2021/08/25 02:30:52;;;;;;;8.02;6.32;;;;;;;14.64;71.58;100442.31;814020;54;20042;-78
2021/08/25 02:31:38;;;;;;;7.47;6.20;;;;;;;14.58;71.73;100437.59;813317;54;20064;-77
2021/08/25 02:32:28;;;;;;;8.25;6.07;;;;;;;14.62;71.59;100436.25;813363;54;20069;-77
2021/08/25 02:33:14;;;;;;;8.23;5.80;;;;;;;14.61;71.54;100444.47;813820;47;20087;-78
2021/08/25 02:34:02;;;;;;;7.75;5.82;;;;;;;14.64;71.78;100438.78;813093;47;20038;-79
2021/08/25 02:34:48;;;;;;;8.85;6.15;;;;;;;14.64;71.63;100441.47;813251;47;20046;-77
2021/08/25 02:35:37;;;;;;;8.05;6.22;;;;;;;14.59;71.51;100435.72;813436;47;20048;-77
2021/08/25 02:36:23;;;;;;;7.90;6.22;;;;;;;14.62;71.48;100435.41;813392;54;20099;-77
2021/08/25 02:37:12;;;;;;;7.63;5.88;;;;;;;14.59;71.46;100438.41;813666;54;20061;-77
2021/08/25 02:37:58;;;;;;;7.65;6.32;;;;;;;14.64;71.42;100433.41;813330;47;20047;-78
2021/08/25 02:38:47;;;;;;;6.82;5.15;;;;;;;14.66;71.54;100434.97;813603;39;21464;-78
2021/08/25 02:39:33;;;;;;;7.65;5.57;;;;;;;14.69;71.11;100431.09;815289;39;20519;-78
2021/08/25 02:40:21;;;;;;;7.32;5.30;;;;;;;14.60;71.58;100430.16;813430;47;20042;-78
2021/08/25 02:41:10;;;;;;;8.73;6.32;;;;;;;14.61;71.63;100441.78;813541;54;20031;-77
2021/08/25 02:41:59;;;;;;;8.35;5.57;;;;;;;14.63;71.62;100429.03;812688;54;20042;-77
2021/08/25 02:42:45;;;;;;;7.60;5.75;;;;;;;14.56;71.79;100423.44;813144;47;20042;-79
2021/08/25 02:43:34;;;;;;;11.82;6.03;;;;;;;14.58;71.59;100429.50;813447;47;20035;-77
2021/08/25 02:44:20;;;;;;;7.50;6.15;;;;;;;14.57;71.66;100433.22;813044;54;20065;-77
2021/08/25 02:45:11;;;;;;;6.95;5.72;;;;;;;14.62;71.38;100427.34;812691;54;20069;-76
2021/08/25 02:46:00;;;;;;;7.13;6.10;;;;;;;14.58;71.68;100426.81;812846;47;20046;-77
2021/08/25 02:46:48;;;;;;;7.32;5.25;;;;;;;14.65;71.37;100427.00;812983;54;20046;-77
2021/08/25 02:47:34;;;;;;;6.30;4.88;;;;;;;14.71;71.43;100421.03;813624;54;20039;-77
2021/08/25 02:48:23;;;;;;;7.63;5.78;;;;;;;14.70;71.33;100423.84;813013;47;20043;-77
2021/08/25 02:49:09;;;;;;;6.72;4.95;;;;;;;14.74;71.17;100426.06;812864;47;20065;-77
2021/08/25 02:49:57;;;;;;;6.72;4.93;;;;;;;14.78;70.98;100427.44;814192;39;20275;-78
2021/08/25 02:50:43;;;;;;;6.40;4.57;;;;;;;14.69;71.20;100419.50;812895;54;20038;-77
2021/08/25 02:51:32;;;;;;;9.05;6.22;;;;;;;14.70;70.99;100415.78;813875;39;20552;-77
2021/08/25 02:52:18;;;;;;;6.93;5.00;;;;;;;14.76;70.86;100429.44;812882;47;20042;-76
2021/08/25 02:53:07;;;;;;;7.10;5.63;;;;;;;14.76;70.79;100421.34;813157;47;20038;-78
2021/08/25 02:53:52;;;;;;;5.82;4.85;;;;;;;14.67;71.13;100422.34;813261;54;20617;-78
2021/08/25 02:54:41;;;;;;;9.00;5.97;;;;;;;14.71;70.99;100421.03;812895;54;20042;-78
2021/08/25 02:55:27;;;;;;;5.78;4.50;;;;;;;14.72;71.14;100417.31;813167;47;20034;-78
2021/08/25 02:56:16;;;;;;;7.80;5.75;;;;;;;14.72;71.16;100425.41;813503;47;20087;-77
2021/08/25 02:57:03;;;;;;;7.13;5.47;;;;;;;14.69;71.31;100428.41;813025;54;20068;-77
2021/08/25 02:57:51;;;;;;;7.00;5.70;;;;;;;14.66;71.29;100423.31;812840;54;20068;-76
2021/08/25 02:58:37;;;;;;;6.97;5.10;;;;;;;14.68;71.38;100421.34;813083;54;20035;-77
2021/08/25 02:59:26;;;;;;;6.47;5.35;;;;;;;14.66;71.15;100418.81;813081;47;20035;-77
2021/08/25 03:00:13;;;;;;;7.20;5.35;;;;;;;14.64;71.13;100428.03;812195;47;20198;-78
2021/08/25 03:01:04;;;;;;;6.88;4.75;;;;;;;14.69;71.18;100417.63;814007;54;20050;-78
2021/08/25 03:01:51;;;;;;;6.25;4.72;;;;;;;14.70;70.98;100423.84;813541;54;20043;-77
2021/08/25 03:02:40;;;;;;;5.78;4.53;;;;;;;14.72;71.20;100420.03;815576;39;20544;-78
2021/08/25 03:03:26;;;;;;;7.32;5.07;;;;;;;14.77;71.03;100420.34;814604;39;20610;-78
2021/08/25 03:04:15;;;;;;;5.22;4.05;;;;;;;14.79;70.81;100425.56;813713;47;20058;-77
2021/08/25 03:05:00;;;;;;;6.32;4.38;;;;;;;14.81;70.88;100413.66;813872;54;20189;-78
2021/08/25 03:05:49;;;;;;;5.28;4.20;;;;;;;14.81;70.80;100419.03;813933;54;20034;-78
2021/08/25 03:06:35;;;;;;;6.35;5.32;;;;;;;14.78;70.93;100418.53;813024;47;20039;-77
2021/08/25 03:07:24;;;;;;;8.15;5.43;;;;;;;14.76;70.92;100412.47;813011;47;20034;-78
2021/08/25 03:08:10;;;;;;;12.20;5.63;;;;;;;14.74;70.72;100417.97;812952;47;20039;-77
2021/08/25 03:08:58;;;;;;;6.55;4.75;;;;;;;14.81;70.63;100418.19;813367;47;20042;-77
2021/08/25 03:09:44;;;;;;;7.43;5.28;;;;;;;14.77;70.90;100406.91;813378;47;20050;-78
2021/08/25 03:10:33;;;;;;;5.93;4.22;;;;;;;14.79;70.88;100412.97;813745;39;20605;-78
2021/08/25 03:11:19;;;;;;;7.13;5.45;;;;;;;14.75;70.84;100416.16;813174;54;20047;-77
2021/08/25 03:12:08;;;;;;;7.25;5.60;;;;;;;14.68;71.06;100407.06;813011;54;20042;-78
2021/08/25 03:12:54;;;;;;;6.38;5.13;;;;;;;14.68;71.23;100415.13;813169;54;20046;-77
2021/08/25 03:13:43;;;;;;;7.78;6.07;;;;;;;14.69;71.13;100414.13;813020;54;20035;-76
2021/08/25 03:14:29;;;;;;;7.30;6.20;;;;;;;14.69;70.99;100416.81;813295;47;20046;-77
2021/08/25 03:15:18;;;;;;;6.65;5.40;;;;;;;14.71;71.02;100412.94;813749;39;20504;-77
2021/08/25 03:16:07;;;;;;;7.50;5.50;;;;;;;14.72;70.90;100411.94;813621;47;20046;-78
2021/08/25 03:16:56;;;;;;;6.90;5.47;;;;;;;14.70;70.98;100408.56;813788;47;20069;-77
2021/08/25 03:17:42;;;;;;;8.02;5.43;;;;;;;14.71;71.17;100415.63;814263;39;20640;-77
2021/08/25 03:18:30;;;;;;;7.07;5.75;;;;;;;14.73;71.21;100413.63;813837;54;20026;-77
2021/08/25 03:19:16;;;;;;;7.70;5.13;;;;;;;14.75;70.94;100406.22;813303;54;20043;-78
2021/08/25 03:20:06;;;;;;;6.80;5.40;;;;;;;14.75;70.78;100406.22;813161;54;20035;-77
2021/08/25 03:20:53;;;;;;;6.63;5.13;;;;;;;14.75;70.86;100411.59;813246;54;20047;-77
2021/08/25 03:21:42;;;;;;;7.00;5.00;;;;;;;14.79;70.70;100415.66;813442;46;20869;-78
2021/08/25 03:22:28;;;;;;;7.55;5.05;;;;;;;14.74;71.16;100409.91;813637;54;20038;-77
2021/08/25 03:23:18;;;;;;;8.32;5.25;;;;;;;14.78;70.89;100405.91;814115;39;20469;-78
2021/08/25 03:24:04;;;;;;;7.05;4.80;;;;;;;14.76;70.87;100401.69;813487;54;21013;-77
2021/08/25 03:24:53;;;;;;;6.32;4.93;;;;;;;14.74;70.88;100404.53;815693;39;20919;-77
2021/08/25 03:25:39;;;;;;;7.60;4.60;;;;;;;14.77;70.99;100398.81;813595;54;20073;-76
2021/08/25 03:26:27;;;;;;;5.90;4.50;;;;;;;14.79;70.62;100406.72;813218;54;20649;-76
2021/08/25 03:27:13;;;;;;;6.45;5.32;;;;;;;14.79;70.77;100398.66;813458;47;20144;-77
2021/08/25 03:28:02;;;;;;;9.60;5.68;;;;;;;14.66;71.25;100401.78;813584;47;20042;-78
2021/08/25 03:28:48;;;;;;;6.93;5.38;;;;;;;14.67;71.22;100400.81;814027;47;20073;-76
2021/08/25 03:29:36;;;;;;;7.70;5.63;;;;;;;14.71;70.89;100402.19;813373;47;20042;-77
2021/08/25 03:30:22;;;;;;;6.80;5.13;;;;;;;14.69;71.11;100392.59;813428;47;20073;-77
2021/08/25 03:31:14;;;;;;;6.85;5.18;;;;;;;14.66;71.24;100391.03;813546;47;20035;-78
2021/08/25 03:32:00;;;;;;;6.78;5.55;;;;;;;14.65;71.25;100400.09;813569;47;20043;-78
2021/08/25 03:32:48;;;;;;;8.25;6.13;;;;;;;14.62;71.34;100389.69;813383;54;20048;-77
2021/08/25 03:33:34;;;;;;;8.63;5.35;;;;;;;14.64;71.19;100395.75;813427;51;20038;-77
2021/08/25 03:34:23;;;;;;;6.70;5.30;;;;;;;14.64;71.21;100387.66;813536;54;20062;-78
2021/08/25 03:35:09;;;;;;;8.63;5.65;;;;;;;14.59;71.68;100390.00;813551;47;20064;-75
2021/08/25 03:35:58;;;;;;;7.78;5.45;;;;;;;14.66;71.08;100391.03;813665;54;20035;-77
2021/08/25 03:36:46;;;;;;;6.00;4.80;;;;;;;14.67;71.05;100398.13;813654;54;20104;-77
2021/08/25 03:37:32;;;;;;;9.05;5.35;;;;;;;14.57;71.28;100389.31;813557;54;20046;-77
2021/08/25 03:38:21;;;;;;;7.30;5.82;;;;;;;14.45;71.69;100394.16;813625;54;20062;-77
2021/08/25 03:39:07;;;;;;;6.93;5.43;;;;;;;14.52;71.51;100392.47;813141;51;20236;-76
2021/08/25 03:39:55;;;;;;;6.45;5.40;;;;;;;14.51;71.51;100393.47;813495;54;20042;-77
2021/08/25 03:40:41;;;;;;;6.85;5.63;;;;;;;14.50;71.87;100387.28;813219;46;20146;-77
2021/08/25 03:41:30;;;;;;;6.68;5.55;;;;;;;14.55;71.67;100394.84;813648;54;20034;-78
2021/08/25 03:42:16;;;;;;;6.75;5.47;;;;;;;14.53;71.59;100385.28;813881;54;20066;-77
2021/08/25 03:43:04;;;;;;;6.28;5.00;;;;;;;14.58;71.23;100386.47;813439;47;20034;-77
2021/08/25 03:43:50;;;;;;;6.53;4.72;;;;;;;14.58;71.18;100388.31;813517;47;20046;-78
2021/08/25 03:44:39;;;;;;;6.30;5.05;;;;;;;14.59;71.28;100390.00;813890;54;20042;-77
2021/08/25 03:45:25;;;;;;;7.57;5.53;;;;;;;14.50;71.51;100381.91;813858;47;20142;-78
2021/08/25 03:46:16;;;;;;;6.93;5.05;;;;;;;14.54;71.39;100390.47;813949;47;20053;-78